Time;durP1;ratioP1;P1;durP2;ratioP2;P2;SDS_P1;SDS_P2;PMS_P1;PMS_P2;Temp;Humidity;BMP_temperature;BMP_pressure;BME280_temperature;BME280_humidity;BME280_pressure;Samples;Min_cycle;Max_cycle;Signal;HPM_P1;HPM_P2
2021/10/25 00:00:40;;;;;;;2.97;2.30;;;6.30;87.90;;;;;;5016933;28;20399;-87
2021/10/25 00:03:05;;;;;;;2.42;2.22;;;6.20;88.50;;;;;;5021297;28;20077;-87
2021/10/25 00:05:31;;;;;;;3.55;2.80;;;6.20;89.40;;;;;;5020509;28;20476;-88
2021/10/25 00:07:57;;;;;;;4.97;3.17;;;6.20;89.20;;;;;;5020473;28;20021;-85
2021/10/25 00:10:23;;;;;;;5.22;2.47;;;6.20;88.80;;;;;;5020548;28;20036;-88
2021/10/25 00:12:49;;;;;;;4.10;2.28;;;6.10;89.50;;;;;;5020420;28;20462;-86
2021/10/25 00:15:16;;;;;;;2.60;2.40;;;6.10;90.00;;;;;;5021170;28;20021;-86
2021/10/25 00:17:42;;;;;;;2.65;2.20;;;6.10;90.30;;;;;;5040040;28;20052;-90
2021/10/25 00:20:09;;;;;;;3.55;2.50;;;6.10;90.20;;;;;;5057776;28;20076;-89
2021/10/25 00:22:35;;;;;;;3.60;2.58;;;6.00;90.20;;;;;;5040248;28;20074;-89
2021/10/25 00:25:01;;;;;;;4.40;2.50;;;6.00;90.30;;;;;;5040056;28;20028;-90
2021/10/25 00:27:27;;;;;;;4.22;2.80;;;6.00;90.30;;;;;;5040052;28;20550;-90
2021/10/25 00:29:53;;;;;;;3.10;2.58;;;6.00;90.40;;;;;;5040132;28;20082;-89
2021/10/25 00:32:18;;;;;;;10.10;5.45;;;6.00;90.50;;;;;;5039909;28;20033;-90
2021/10/25 00:34:44;;;;;;;6.40;3.50;;;6.10;90.60;;;;;;5041004;28;20036;-90
2021/10/25 00:37:10;;;;;;;4.90;2.63;;;6.10;90.60;;;;;;5039841;28;20532;-87
2021/10/25 00:39:36;;;;;;;3.22;2.42;;;6.10;90.60;;;;;;5036205;28;20171;-89
2021/10/25 00:42:02;;;;;;;2.50;2.15;;;6.00;90.40;;;;;;5037671;28;20040;-90
2021/10/25 00:44:30;;;;;;;4.60;3.05;;;6.00;90.00;;;;;;5036365;28;20131;-87
2021/10/25 00:46:56;;;;;;;5.30;3.10;;;6.00;89.30;;;;;;5037388;28;20033;-88
2021/10/25 00:49:22;;;;;;;3.78;2.50;;;6.10;89.90;;;;;;5036162;28;20033;-87
2021/10/25 00:51:49;;;;;;;3.30;2.80;;;6.00;90.10;;;;;;5036214;28;20017;-89
2021/10/25 00:54:15;;;;;;;3.15;2.60;;;6.00;90.70;;;;;;5036114;28;20030;-88
2021/10/25 00:56:45;;;;;;;2.83;2.38;;;6.10;90.50;;;;;;5036085;28;20087;-88
2021/10/25 00:59:11;;;;;;;2.55;2.17;;;6.00;90.30;;;;;;5036100;28;20025;-88
2021/10/25 01:01:38;;;;;;;2.90;2.60;;;6.00;90.40;;;;;;5035889;28;20491;-88
2021/10/25 01:04:04;;;;;;;3.33;2.55;;;5.90;90.30;;;;;;5035819;28;20029;-87
2021/10/25 01:06:30;;;;;;;2.55;2.30;;;6.00;90.40;;;;;;5036004;28;20108;-88
2021/10/25 01:08:59;;;;;;;2.60;2.13;;;6.00;90.40;;;;;;5033594;28;20117;-87
2021/10/25 01:11:26;;;;;;;2.40;2.20;;;5.90;90.10;;;;;;5015505;28;20030;-88
2021/10/25 01:13:53;;;;;;;2.95;2.20;;;6.00;90.30;;;;;;5016936;28;20046;-88
2021/10/25 01:16:20;;;;;;;2.55;2.30;;;5.90;90.30;;;;;;5015950;28;20026;-92
2021/10/25 01:18:47;;;;;;;2.58;2.35;;;5.90;90.30;;;;;;5022852;28;20047;-87
2021/10/25 01:21:13;;;;;;;4.80;2.33;;;5.90;90.50;;;;;;5035589;28;20369;-89
2021/10/25 01:23:39;;;;;;;3.30;2.40;;;5.90;90.70;;;;;;5035576;28;20088;-87
2021/10/25 01:26:05;;;;;;;4.15;2.63;;;5.70;89.80;;;;;;5035510;28;20021;-88
2021/10/25 01:28:31;;;;;;;3.95;2.67;;;5.60;90.00;;;;;;5034230;28;20384;-89
2021/10/25 01:30:57;;;;;;;2.40;2.20;;;5.60;89.90;;;;;;5015658;28;20030;-87
2021/10/25 01:33:24;;;;;;;3.10;2.28;;;5.60;90.00;;;;;;5015548;28;20056;-87
2021/10/25 01:35:50;;;;;;;3.55;2.30;;;5.60;90.20;;;;;;5015581;28;20053;-87
2021/10/25 01:38:16;;;;;;;2.90;2.10;;;5.70;90.40;;;;;;5015815;28;20026;-89
2021/10/25 01:40:42;;;;;;;4.25;2.55;;;5.60;90.40;;;;;;5033410;28;20502;-88
2021/10/25 01:43:08;;;;;;;4.47;2.22;;;5.60;90.50;;;;;;5056242;28;20110;-88
2021/10/25 01:45:34;;;;;;;3.50;2.30;;;5.60;90.70;;;;;;5038838;28;20021;-86
2021/10/25 01:48:00;;;;;;;2.80;2.20;;;5.60;90.70;;;;;;5038411;28;20076;-88
2021/10/25 01:50:25;;;;;;;3.53;2.17;;;5.60;91.10;;;;;;5038485;28;20420;-88
2021/10/25 01:52:52;;;;;;;3.25;2.28;;;5.60;91.10;;;;;;5038148;28;20060;-88
2021/10/25 01:55:19;;;;;;;3.22;2.40;;;5.60;91.10;;;;;;5038455;28;20392;-87
2021/10/25 01:57:44;;;;;;;3.05;2.45;;;5.60;91.40;;;;;;5038157;28;20095;-87
2021/10/25 02:00:10;;;;;;;2.80;2.22;;;5.60;91.40;;;;;;5038207;28;20476;-86
2021/10/25 02:02:36;;;;;;;2.90;2.17;;;5.60;91.20;;;;;;5021828;28;20026;-89
2021/10/25 02:05:02;;;;;;;3.28;2.28;;;5.50;91.20;;;;;;5035855;28;20025;-87
2021/10/25 02:07:31;;;;;;;4.15;2.22;;;5.50;91.20;;;;;;5018360;28;20022;-88
2021/10/25 02:09:57;;;;;;;2.70;2.20;;;5.50;91.00;;;;;;5018332;28;20026;-89
2021/10/25 02:12:23;;;;;;;3.00;2.35;;;5.40;90.80;;;;;;5035640;28;20357;-88
2021/10/25 02:14:49;;;;;;;2.88;2.30;;;5.40;91.30;;;;;;5018165;28;20029;-92
2021/10/25 02:17:15;;;;;;;2.92;2.30;;;5.40;91.40;;;;;;5018332;28;20476;-87
2021/10/25 02:19:41;;;;;;;3.38;2.22;;;5.40;91.30;;;;;;5017954;28;20039;-88
2021/10/25 02:22:08;;;;;;;4.30;2.53;;;5.40;91.40;;;;;;5018170;28;20357;-89
2021/10/25 02:24:35;;;;;;;3.63;2.30;;;5.40;91.60;;;;;;5033392;28;20035;-88
2021/10/25 02:27:03;;;;;;;4.05;2.60;;;5.30;92.00;;;;;;5037594;28;20021;-90
2021/10/25 02:29:35;;;;;;;3.33;2.55;;;5.40;92.20;;;;;;5055345;28;20160;-88
2021/10/25 02:32:05;;;;;;;3.08;2.50;;;5.30;92.50;;;;;;5055281;28;20080;-87
2021/10/25 02:34:32;;;;;;;3.33;2.28;;;5.30;92.50;;;;;;5037515;28;20031;-89
2021/10/25 02:36:59;;;;;;;3.63;2.90;;;5.20;92.50;;;;;;5035428;28;20718;-88
2021/10/25 02:39:27;;;;;;;3.05;2.47;;;5.20;92.50;;;;;;5014199;28;20492;-88
2021/10/25 02:41:53;;;;;;;3.75;2.58;;;5.10;92.70;;;;;;5014459;28;20030;-88
2021/10/25 02:44:19;;;;;;;4.97;2.50;;;5.10;92.80;;;;;;5014296;28;20362;-88
2021/10/25 02:46:44;;;;;;;3.95;2.47;;;5.00;92.70;;;;;;5014611;28;20069;-88
2021/10/25 02:49:10;;;;;;;3.15;2.58;;;5.00;92.90;;;;;;5014255;28;20080;-89
2021/10/25 02:51:36;;;;;;;3.25;2.50;;;4.90;92.90;;;;;;5030501;28;20025;-89
2021/10/25 02:54:02;;;;;;;3.65;2.47;;;4.80;92.90;;;;;;5034851;28;20048;-88
2021/10/25 02:56:28;;;;;;;4.00;2.35;;;4.80;92.90;;;;;;5034053;28;20017;-88
2021/10/25 02:58:55;;;;;;;2.85;2.30;;;4.70;92.80;;;;;;5018340;28;20025;-93
2021/10/25 03:01:21;;;;;;;2.80;2.50;;;4.70;93.10;;;;;;5014043;28;20060;-89
2021/10/25 03:03:47;;;;;;;3.20;2.45;;;4.70;93.10;;;;;;5014173;28;20046;-94
2021/10/25 03:06:13;;;;;;;2.90;2.47;;;4.70;93.20;;;;;;5013754;28;20072;-91
2021/10/25 03:08:39;;;;;;;2.90;2.58;;;4.70;93.40;;;;;;5014170;28;20465;-93
2021/10/25 03:11:05;;;;;;;4.63;2.67;;;4.60;93.60;;;;;;5013800;28;20388;-90
2021/10/25 03:13:31;;;;;;;3.70;2.55;;;4.60;93.80;;;;;;5013849;28;20032;-90
2021/10/25 03:15:57;;;;;;;3.80;2.75;;;4.60;93.80;;;;;;5013781;28;20022;-89
2021/10/25 03:18:23;;;;;;;4.13;2.90;;;4.60;94.00;;;;;;5014378;28;20034;-94
2021/10/25 03:20:49;;;;;;;3.72;2.65;;;4.50;94.00;;;;;;5014961;28;20443;-94
2021/10/25 03:23:15;;;;;;;3.95;2.83;;;4.50;94.00;;;;;;5015107;28;20049;-92
2021/10/25 03:25:41;;;;;;;4.65;2.67;;;4.50;94.10;;;;;;5013976;28;20018;-94
2021/10/25 03:28:08;;;;;;;3.30;2.72;;;4.50;94.10;;;;;;5013711;28;20029;-94
2021/10/25 03:30:35;;;;;;;5.65;2.72;;;4.50;94.20;;;;;;5014710;28;20094;-96
2021/10/25 03:33:02;;;;;;;3.85;2.80;;;4.40;94.20;;;;;;5013830;28;20033;-92
2021/10/25 03:35:28;;;;;;;3.75;2.55;;;4.50;94.20;;;;;;5013550;28;20026;-95
2021/10/25 03:37:55;;;;;;;3.00;2.67;;;4.40;94.20;;;;;;5014914;28;20026;-91
2021/10/25 03:40:21;;;;;;;3.25;2.60;;;4.40;94.30;;;;;;5016527;28;20128;-92
2021/10/25 03:42:50;;;;;;;4.20;2.67;;;4.40;94.20;;;;;;5016993;28;20117;-93
2021/10/25 03:50:29;;;;;;;5.78;2.88;;;4.40;94.30;;;;;;5034459;28;20133;-94
2021/10/25 03:55:39;;;;;;;3.75;2.67;;;4.30;94.50;;;;;;5045072;28;20025;-91
2021/10/25 04:03:46;;;;;;;4.97;2.92;;;4.30;94.70;;;;;;5034437;28;20021;-89
2021/10/25 04:28:00;;;;;;;6.57;2.55;;;4.10;94.40;;;;;;5043703;28;20013;-89
2021/10/25 04:30:31;;;;;;;5.35;2.70;;;4.10;94.00;;;;;;5036485;28;20056;-92
2021/10/25 04:32:57;;;;;;;;;;;4.10;94.00;;;;;;5036368;28;20032;-93
2021/10/25 04:35:23;;;;;;;3.55;2.72;;;4.10;93.90;;;;;;5036092;28;20270;-89
2021/10/25 16:08:27;;;;;;;57.67;25.55;;;3.60;87.00;;;;;;5108196;27;20374;-94
2021/10/25 16:10:53;;;;;;;45.35;21.15;;;3.50;86.50;;;;;;5091034;28;20035;-94
2021/10/25 16:13:19;;;;;;;45.97;21.67;;;3.50;87.50;;;;;;5091075;28;20111;-95
2021/10/25 16:15:45;;;;;;;41.15;20.15;;;3.50;88.50;;;;;;5090998;28;20050;-95
2021/10/25 16:18:12;;;;;;;50.28;22.88;;;3.50;89.50;;;;;;5090873;28;20107;-94
2021/10/25 16:20:39;;;;;;;41.15;21.63;;;3.50;90.10;;;;;;5091029;28;20479;-95
2021/10/25 16:23:05;;;;;;;53.28;22.98;;;3.50;90.40;;;;;;5091007;28;20020;-95
2021/10/25 16:25:31;;;;;;;137.10;60.78;;;3.60;90.60;;;;;;5090903;28;20057;-95
2021/10/25 16:27:57;;;;;;;191.77;87.00;;;3.60;90.80;;;;;;5090715;28;20035;-95
2021/10/25 16:30:23;;;;;;;161.35;80.13;;;3.60;90.90;;;;;;5090821;28;20020;-96
2021/10/25 16:32:50;;;;;;;62.83;33.63;;;3.60;91.00;;;;;;5090953;28;20572;-95
2021/10/25 16:35:16;;;;;;;63.25;32.03;;;3.60;91.10;;;;;;5090489;28;20577;-96
2021/10/25 16:37:42;;;;;;;80.32;38.53;;;3.60;91.10;;;;;;5090688;28;20029;-95
2021/10/25 16:40:11;;;;;;;106.15;52.95;;;3.70;91.20;;;;;;5090621;28;20120;-96
2021/10/25 16:42:39;;;;;;;110.72;49.47;;;3.70;91.20;;;;;;5090433;28;20119;-96
2021/10/25 16:45:05;;;;;;;124.72;53.40;;;3.70;91.20;;;;;;5090263;28;20052;-95
2021/10/25 16:47:31;;;;;;;120.13;52.58;;;3.80;91.20;;;;;;5089771;28;20375;-92
2021/10/25 16:50:00;;;;;;;166.93;66.05;;;3.80;91.20;;;;;;5089934;28;20508;-92
2021/10/25 16:52:45;;;;;;;189.70;80.72;;;3.80;91.20;;;;;;5089913;28;20107;-92
2021/10/25 17:11:10;;;;;;;170.95;74.63;;;3.80;91.20;;;;;;5104835;28;20108;-92
2021/10/25 17:13:36;;;;;;;154.02;66.68;;;3.70;91.20;;;;;;5089408;28;20454;-92
2021/10/25 17:16:02;;;;;;;144.48;63.40;;;3.70;91.20;;;;;;5089508;28;20020;-91
2021/10/25 17:18:28;;;;;;;133.65;60.65;;;3.70;91.30;;;;;;5081945;28;20446;-92
2021/10/25 17:20:58;;;;;;;142.38;62.50;;;3.70;91.30;;;;;;5076819;28;20432;-92
2021/10/25 17:23:25;;;;;;;156.77;62.53;;;3.60;91.30;;;;;;5075251;28;20113;-92
2021/10/25 17:25:51;;;;;;;146.50;64.55;;;3.50;91.40;;;;;;5075918;28;20105;-92
2021/10/25 17:28:17;;;;;;;237.48;104.55;;;3.50;91.50;;;;;;5075582;28;20075;-92
2021/10/25 17:30:43;;;;;;;281.17;117.55;;;3.50;91.50;;;;;;5076093;28;20016;-92
2021/10/25 17:33:08;;;;;;;318.48;133.13;;;3.50;91.50;;;;;;5075518;28;20031;-92
2021/10/25 17:35:35;;;;;;;281.17;124.13;;;3.50;91.60;;;;;;5075676;28;20098;-92
2021/10/25 17:38:02;;;;;;;265.77;117.85;;;3.50;91.60;;;;;;5075640;28;20025;-93
2021/10/25 17:40:30;;;;;;;239.80;110.18;;;3.50;91.70;;;;;;5075803;28;20080;-93
2021/10/25 17:42:57;;;;;;;237.25;107.38;;;3.40;91.70;;;;;;5075521;28;20111;-93
2021/10/25 17:45:27;;;;;;;231.27;106.78;;;3.40;91.80;;;;;;5075760;28;20471;-93
2021/10/25 17:47:54;;;;;;;229.97;102.40;;;3.40;92.00;;;;;;5075410;28;20475;-93
2021/10/25 17:50:20;;;;;;;338.85;145.73;;;3.30;92.00;;;;;;5075550;28;20740;-94
2021/10/25 17:52:48;;;;;;;259.38;112.32;;;3.30;92.00;;;;;;5075099;28;20103;-93
2021/10/25 17:55:14;;;;;;;264.85;120.80;;;3.30;92.10;;;;;;5075547;28;20463;-95
2021/10/25 17:57:44;;;;;;;293.63;132.88;;;3.30;92.10;;;;;;5075771;28;20055;-96
2021/10/25 18:00:11;;;;;;;268.52;116.70;;;3.30;92.20;;;;;;5075446;28;20084;-95
2021/10/25 18:02:39;;;;;;;261.50;116.90;;;3.30;92.10;;;;;;5075589;28;20039;-96
2021/10/25 18:05:08;;;;;;;279.13;123.50;;;3.20;92.20;;;;;;5075645;28;20039;-94
2021/10/25 18:07:36;;;;;;;272.92;116.90;;;3.20;92.20;;;;;;5074812;28;20045;-95
2021/10/25 18:10:02;;;;;;;279.33;122.47;;;3.30;92.30;;;;;;5075290;28;20035;-92
2021/10/25 18:12:28;;;;;;;290.45;124.40;;;3.20;92.40;;;;;;5075121;28;20162;-93
2021/10/25 18:14:54;;;;;;;269.92;120.88;;;3.20;92.40;;;;;;5074964;28;20074;-92
2021/10/25 18:17:19;;;;;;;274.13;121.43;;;3.20;92.40;;;;;;5076260;28;20028;-95
2021/10/25 18:19:45;;;;;;;281.60;130.10;;;3.20;92.50;;;;;;5074870;28;20467;-93
2021/10/25 18:22:11;;;;;;;274.40;125.47;;;3.20;92.40;;;;;;5074842;28;20024;-93
2021/10/25 18:24:37;;;;;;;284.25;127.25;;;3.20;92.40;;;;;;5075079;28;20059;-93
2021/10/25 18:27:02;;;;;;;266.90;119.72;;;3.10;92.50;;;;;;5074917;28;20021;-93
2021/10/25 18:29:28;;;;;;;274.77;120.60;;;3.10;92.50;;;;;;5074661;28;20024;-92
2021/10/25 18:31:54;;;;;;;259.98;119.93;;;3.10;92.50;;;;;;5074355;28;20429;-94
2021/10/25 18:34:21;;;;;;;411.05;186.70;;;3.10;92.60;;;;;;5074731;28;20020;-93
2021/10/25 18:36:47;;;;;;;491.98;262.13;;;3.10;92.60;;;;;;5074626;28;20482;-93
2021/10/25 18:39:13;;;;;;;387.48;187.00;;;3.10;92.50;;;;;;5074582;28;20447;-93
2021/10/25 18:41:39;;;;;;;342.10;146.40;;;3.10;92.50;;;;;;5074908;28;20028;-93
2021/10/25 18:44:05;;;;;;;329.05;142.02;;;3.10;92.40;;;;;;5074495;28;20032;-93
2021/10/25 18:46:32;;;;;;;299.27;131.95;;;3.10;92.40;;;;;;5074424;28;20386;-93
2021/10/25 18:48:58;;;;;;;273.45;122.10;;;3.10;92.50;;;;;;5074485;28;20032;-93
2021/10/25 18:51:25;;;;;;;244.82;111.47;;;3.10;92.50;;;;;;5074295;28;20062;-93
2021/10/25 18:53:55;;;;;;;221.98;99.85;;;3.00;92.50;;;;;;5074447;28;20103;-93
2021/10/25 18:56:22;;;;;;;198.15;89.70;;;3.00;92.50;;;;;;5074218;28;20021;-93
2021/10/25 18:58:48;;;;;;;198.57;87.40;;;3.00;92.60;;;;;;5074144;28;20032;-92
2021/10/25 19:01:18;;;;;;;193.65;87.82;;;3.00;92.60;;;;;;5074046;28;20012;-92
2021/10/25 19:03:45;;;;;;;181.87;82.20;;;2.90;92.60;;;;;;5074046;28;20029;-92
2021/10/25 19:06:11;;;;;;;167.35;75.35;;;2.90;92.60;;;;;;5073586;28;20039;-93
2021/10/25 19:08:40;;;;;;;170.90;75.05;;;2.90;92.60;;;;;;5074054;28;20506;-93
2021/10/25 19:11:08;;;;;;;172.48;76.78;;;2.90;92.70;;;;;;5074241;28;20032;-92
2021/10/25 19:13:34;;;;;;;173.02;79.47;;;2.90;92.70;;;;;;5073930;28;20020;-92
2021/10/25 19:16:01;;;;;;;153.82;69.07;;;2.90;92.70;;;;;;5089588;28;20040;-92
2021/10/25 19:18:28;;;;;;;156.55;69.30;;;2.90;92.70;;;;;;5094182;28;20020;-92
2021/10/25 19:20:54;;;;;;;138.52;63.75;;;2.90;92.70;;;;;;5094018;28;20020;-93
2021/10/25 19:23:21;;;;;;;129.25;62.33;;;2.90;92.70;;;;;;5093986;28;20111;-92
2021/10/25 19:25:47;;;;;;;117.28;56.22;;;2.90;92.70;;;;;;5093765;28;20028;-93
2021/10/25 19:28:15;;;;;;;129.75;60.00;;;2.90;92.70;;;;;;5093749;28;20039;-93
2021/10/25 19:30:41;;;;;;;118.22;56.47;;;2.80;92.80;;;;;;5093937;28;20017;-93
2021/10/25 19:33:07;;;;;;;113.80;51.55;;;2.80;92.60;;;;;;5094125;28;20107;-93
2021/10/25 19:35:33;;;;;;;111.68;50.47;;;2.80;92.70;;;;;;5093758;28;20039;-93
2021/10/25 19:37:59;;;;;;;107.15;50.05;;;2.80;92.70;;;;;;5093812;28;20393;-93
2021/10/25 19:40:25;;;;;;;107.70;50.97;;;2.80;92.70;;;;;;5093706;28;20020;-93
2021/10/25 19:42:51;;;;;;;109.20;51.22;;;2.70;92.70;;;;;;5093481;28;20035;-92
2021/10/25 19:45:16;;;;;;;108.30;50.35;;;2.70;92.70;;;;;;5093612;28;20032;-92
2021/10/25 19:47:44;;;;;;;100.82;48.03;;;2.70;92.80;;;;;;5093560;28;20028;-92
2021/10/25 19:50:15;;;;;;;96.35;47.15;;;2.70;92.80;;;;;;5093581;28;20107;-93
2021/10/25 19:52:42;;;;;;;98.50;46.17;;;2.60;92.80;;;;;;5093583;28;20382;-92
2021/10/25 19:55:10;;;;;;;92.03;44.17;;;2.60;92.80;;;;;;5093687;28;20027;-92
2021/10/25 19:57:37;;;;;;;89.30;44.90;;;2.60;92.80;;;;;;5093561;28;20047;-92
2021/10/25 20:00:08;;;;;;;91.47;44.55;;;2.60;92.90;;;;;;5093390;28;20109;-92
2021/10/25 20:02:34;;;;;;;88.45;40.95;;;2.60;92.90;;;;;;5093347;28;20390;-92
2021/10/25 20:04:59;;;;;;;102.07;47.65;;;2.60;92.90;;;;;;5093391;28;20035;-92
2021/10/25 20:07:25;;;;;;;120.63;58.97;;;2.60;92.90;;;;;;5093090;28;20148;-93
2021/10/25 20:09:51;;;;;;;119.63;60.35;;;2.50;92.90;;;;;;5093586;28;20024;-93
2021/10/25 20:12:17;;;;;;;148.93;68.32;;;2.50;92.90;;;;;;5093445;28;20153;-92
2021/10/25 20:14:44;;;;;;;137.55;65.28;;;2.40;93.10;;;;;;5093376;28;20031;-92
2021/10/25 20:17:10;;;;;;;128.60;60.58;;;2.40;93.10;;;;;;5093732;28;20020;-93
2021/10/25 20:19:37;;;;;;;131.48;65.30;;;2.40;93.10;;;;;;5093317;28;20466;-93
2021/10/25 20:22:03;;;;;;;120.90;56.72;;;2.40;93.20;;;;;;5093344;28;20032;-93
2021/10/25 20:24:29;;;;;;;108.53;52.10;;;2.40;93.10;;;;;;5093091;28;20038;-92
2021/10/25 20:26:55;;;;;;;105.90;50.13;;;2.40;93.20;;;;;;5093211;28;20027;-92
2021/10/25 20:29:22;;;;;;;102.70;49.08;;;2.30;93.20;;;;;;5094029;28;20427;-92
2021/10/25 20:31:57;;;;;;;96.50;47.38;;;2.30;93.20;;;;;;5093163;28;20024;-92
2021/10/25 20:34:23;;;;;;;92.65;47.03;;;2.30;93.30;;;;;;5093101;28;20062;-93
2021/10/25 20:36:49;;;;;;;95.35;42.88;;;2.30;93.30;;;;;;5093304;28;20028;-93
2021/10/25 20:39:15;;;;;;;88.75;45.33;;;2.30;93.30;;;;;;5093223;28;20466;-93
2021/10/25 20:41:42;;;;;;;96.30;46.78;;;2.20;93.30;;;;;;5093141;28;20474;-92
2021/10/25 20:44:08;;;;;;;103.30;51.08;;;2.20;93.30;;;;;;5093029;28;20077;-93
2021/10/25 20:46:35;;;;;;;138.50;64.25;;;2.20;93.30;;;;;;5092929;28;20020;-92
2021/10/25 20:49:02;;;;;;;139.02;67.63;;;2.30;93.30;;;;;;5093046;28;20027;-93
2021/10/25 20:51:27;;;;;;;139.57;65.88;;;2.20;93.30;;;;;;5093012;28;20027;-93
2021/10/25 20:53:53;;;;;;;141.10;62.85;;;2.30;93.30;;;;;;5094399;28;20024;-92
2021/10/25 20:56:19;;;;;;;144.50;68.82;;;2.20;93.20;;;;;;5096768;28;20423;-93
2021/10/25 20:58:45;;;;;;;159.95;76.72;;;2.20;93.30;;;;;;5096810;28;20020;-93
2021/10/25 21:01:12;;;;;;;142.85;72.60;;;2.20;93.30;;;;;;5097045;28;20024;-93
2021/10/25 21:03:46;;;;;;;163.55;81.85;;;2.20;93.30;;;;;;5096664;28;20028;-93
2021/10/25 21:06:12;;;;;;;174.48;87.45;;;2.10;93.40;;;;;;5096351;28;20016;-94
2021/10/25 21:08:38;;;;;;;185.60;94.15;;;2.10;93.40;;;;;;5096518;28;20028;-93
2021/10/25 21:11:04;;;;;;;182.23;93.13;;;2.10;93.50;;;;;;5096603;28;20051;-94
2021/10/25 21:13:30;;;;;;;190.27;96.43;;;2.00;93.40;;;;;;5096385;28;20028;-93
2021/10/25 21:15:56;;;;;;;204.85;109.15;;;2.00;93.50;;;;;;5096474;28;20047;-93
2021/10/25 21:18:22;;;;;;;177.68;89.32;;;2.00;93.50;;;;;;5096447;28;20031;-93
2021/10/25 21:20:47;;;;;;;173.25;84.85;;;1.90;93.70;;;;;;5096443;28;20025;-93
2021/10/25 21:23:14;;;;;;;159.90;79.57;;;1.90;93.70;;;;;;5096570;28;20390;-93
2021/10/25 21:25:40;;;;;;;166.80;81.28;;;1.90;93.70;;;;;;5096265;28;20024;-93
2021/10/25 21:28:06;;;;;;;173.05;81.20;;;1.90;93.80;;;;;;5096900;28;20026;-92
2021/10/25 21:30:34;;;;;;;159.45;72.40;;;1.90;93.70;;;;;;5096212;28;20020;-93
2021/10/25 21:33:00;;;;;;;159.05;71.57;;;1.90;93.70;;;;;;5096107;28;20111;-93
2021/10/25 21:35:26;;;;;;;149.40;69.50;;;1.90;93.80;;;;;;5095912;28;20021;-92
2021/10/25 21:37:52;;;;;;;136.50;63.70;;;1.80;93.70;;;;;;5096048;28;20063;-92
2021/10/25 21:40:19;;;;;;;133.55;60.92;;;1.90;93.70;;;;;;5096544;28;20028;-92
2021/10/25 21:42:45;;;;;;;147.82;66.25;;;1.90;93.70;;;;;;5095979;28;20097;-93
2021/10/25 21:45:11;;;;;;;152.65;66.68;;;1.80;93.70;;;;;;5096121;28;20470;-93
2021/10/25 21:47:37;;;;;;;155.90;69.80;;;1.90;93.70;;;;;;5093827;28;20046;-93
2021/10/25 21:50:10;;;;;;;149.20;67.32;;;1.80;93.70;;;;;;5075534;28;20054;-93
2021/10/25 21:52:36;;;;;;;151.65;65.25;;;1.80;93.60;;;;;;5075492;28;20391;-93
2021/10/25 21:55:02;;;;;;;148.25;62.55;;;1.80;93.70;;;;;;5075454;28;20017;-93
2021/10/25 21:57:27;;;;;;;142.98;62.80;;;1.80;93.60;;;;;;5075498;28;20036;-93
2021/10/25 21:59:53;;;;;;;137.57;60.63;;;1.80;93.60;;;;;;5075396;28;20226;-93
2021/10/25 22:02:19;;;;;;;128.57;60.13;;;1.80;93.70;;;;;;5075360;28;20086;-93
2021/10/25 22:04:44;;;;;;;142.52;61.88;;;1.80;93.60;;;;;;5075267;28;20028;-93
2021/10/25 22:07:10;;;;;;;144.45;65.57;;;1.80;93.70;;;;;;5075186;28;20049;-93
2021/10/25 22:09:36;;;;;;;141.75;60.55;;;1.70;93.70;;;;;;5075182;28;20016;-94
2021/10/25 22:12:01;;;;;;;135.80;59.72;;;1.70;93.70;;;;;;5075220;28;20032;-94
2021/10/25 22:14:27;;;;;;;141.70;60.00;;;1.70;93.80;;;;;;5074974;28;20107;-94
2021/10/25 22:16:53;;;;;;;134.40;62.25;;;1.60;93.80;;;;;;5075022;28;20051;-93
2021/10/25 22:19:19;;;;;;;124.78;54.30;;;1.60;93.90;;;;;;5074834;28;20040;-94
2021/10/25 22:21:44;;;;;;;115.65;53.97;;;1.60;93.90;;;;;;5075051;28;20086;-93
2021/10/25 22:24:10;;;;;;;119.88;51.90;;;1.60;93.80;;;;;;5074934;28;20031;-94
2021/10/25 22:26:36;;;;;;;109.80;50.63;;;1.60;93.80;;;;;;5074940;28;20027;-93
2021/10/25 22:29:02;;;;;;;102.47;48.03;;;1.60;93.70;;;;;;5074905;28;20024;-94
2021/10/25 22:31:28;;;;;;;110.38;50.00;;;1.60;93.70;;;;;;5074852;28;20486;-94
2021/10/25 22:33:53;;;;;;;102.53;47.92;;;1.60;93.70;;;;;;5074712;28;20025;-94
2021/10/25 22:36:19;;;;;;;99.13;47.42;;;1.60;93.70;;;;;;5075311;28;20021;-94
2021/10/25 22:38:45;;;;;;;99.57;44.70;;;1.60;93.70;;;;;;5074579;28;20027;-93
2021/10/25 22:41:10;;;;;;;102.35;46.55;;;1.60;93.70;;;;;;5074590;28;20438;-94
2021/10/25 22:43:36;;;;;;;109.78;49.25;;;1.60;93.70;;;;;;5074540;28;20112;-93
2021/10/25 22:46:02;;;;;;;100.07;47.20;;;1.50;93.80;;;;;;5074499;28;20493;-94
2021/10/25 22:48:27;;;;;;;96.57;47.92;;;1.50;93.80;;;;;;5074391;28;20098;-93
2021/10/25 22:50:54;;;;;;;107.85;48.70;;;1.60;93.80;;;;;;5074660;28;20051;-93
2021/10/25 22:53:20;;;;;;;97.80;45.92;;;1.60;93.80;;;;;;5074376;28;20103;-93
2021/10/25 22:55:47;;;;;;;100.32;47.28;;;1.60;93.80;;;;;;5074227;28;20467;-93
2021/10/25 22:58:13;;;;;;;96.70;44.47;;;1.60;93.80;;;;;;5074179;28;20040;-93
2021/10/25 23:00:39;;;;;;;103.28;46.92;;;1.60;93.70;;;;;;5074180;28;20024;-94
2021/10/25 23:03:05;;;;;;;97.47;45.20;;;1.60;93.70;;;;;;5074069;28;20058;-93
2021/10/25 23:05:31;;;;;;;88.65;41.67;;;1.60;93.70;;;;;;5074166;28;20025;-93
2021/10/25 23:07:57;;;;;;;92.93;42.10;;;1.60;93.70;;;;;;5073841;28;20048;-92
2021/10/25 23:10:23;;;;;;;88.10;42.05;;;1.50;93.70;;;;;;5057738;28;20029;-92
2021/10/25 23:12:50;;;;;;;89.63;42.22;;;1.50;93.80;;;;;;5074131;28;20037;-92
2021/10/25 23:15:16;;;;;;;82.13;40.75;;;1.50;93.80;;;;;;5073918;28;20024;-92
2021/10/25 23:17:43;;;;;;;86.38;41.45;;;1.40;93.90;;;;;;5073451;28;20079;-92
2021/10/25 23:20:10;;;;;;;96.30;45.72;;;1.40;93.90;;;;;;5073761;28;20097;-92
2021/10/25 23:22:35;;;;;;;91.82;45.47;;;1.40;93.90;;;;;;5073805;28;20032;-93
2021/10/25 23:25:02;;;;;;;88.47;42.28;;;1.30;94.00;;;;;;5073713;28;20028;-93
2021/10/25 23:27:28;;;;;;;78.75;38.60;;;1.30;94.10;;;;;;5074181;28;20371;-93
2021/10/25 23:29:53;;;;;;;83.50;40.45;;;1.40;94.10;;;;;;5074126;28;20021;-93
2021/10/25 23:32:20;;;;;;;82.72;40.65;;;1.30;94.00;;;;;;5073769;28;20384;-93
2021/10/25 23:34:46;;;;;;;87.70;41.83;;;1.30;94.10;;;;;;5073752;28;20376;-93
2021/10/25 23:37:15;;;;;;;87.43;41.17;;;1.30;94.10;;;;;;5073643;28;20028;-92
2021/10/25 23:39:41;;;;;;;86.45;43.92;;;1.30;94.10;;;;;;5073453;28;20035;-93
2021/10/25 23:42:08;;;;;;;91.93;45.80;;;1.30;94.00;;;;;;5073614;28;20123;-93
2021/10/25 23:44:36;;;;;;;85.50;43.65;;;1.40;94.00;;;;;;5073398;28;20021;-93
2021/10/25 23:47:03;;;;;;;85.82;41.15;;;1.40;94.10;;;;;;5073410;28;20028;-92
2021/10/25 23:49:28;;;;;;;77.93;38.53;;;1.30;94.10;;;;;;5073329;28;20021;-94
2021/10/25 23:51:54;;;;;;;88.90;39.15;;;1.30;94.10;;;;;;5073460;28;20154;-93
2021/10/25 23:54:20;;;;;;;80.18;37.72;;;1.30;94.10;;;;;;5073681;28;20464;-92
2021/10/25 23:56:46;;;;;;;83.68;39.95;;;1.20;94.10;;;;;;5073485;28;20036;-93
2021/10/25 23:59:11;;;;;;;83.38;39.38;;;1.20;94.10;;;;;;5073297;28;20020;-92
